EST,Max TemperatureF,Mean TemperatureF,Min TemperatureF,Max Dew PointF,MeanDew PointF,Min DewpointF,Max Humidity, Mean Humidity, Min Humidity, Max Sea Level PressureIn, Mean Sea Level PressureIn, Min Sea Level PressureIn, Max VisibilityMiles, Mean VisibilityMiles, Min VisibilityMiles, Max Wind SpeedMPH, Mean Wind SpeedMPH, Max Gust SpeedMPH,PrecipitationIn, CloudCover, Events, WindDirDegrees
2014-2-1,35,22,9,31,21,4,92,77,62,30.29,30.07,29.82,10,4,0,14,4,19,0.31,7,Fog-Rain-Snow,78
2014-2-2,35,30,24,32,24,19,96,83,69,30.21,30.00,29.81,10,7,2,16,8,20,0.09,7,Rain-Snow,263
2014-2-3,25,16,6,17,8,3,88,70,52,30.38,30.31,30.22,10,10,2,12,4,14,T,3,,35
2014-2-4,22,16,10,14,9,6,88,70,52,30.53,30.44,30.36,10,8,2,12,4,15,T,4,Snow,238
2014-2-5,18,12,5,14,11,-4,88,76,63,30.35,30.09,29.92,10,3,0,22,9,26,0.06,8,Fog-Snow,20
2014-2-6,17,0,-17,11,2,-16,87,73,58,30.36,30.23,30.13,10,8,2,21,9,26,0.01,4,Snow,217
2014-2-7,19,14,9,10,7,1,84,73,61,30.24,30.16,30.12,10,6,1,30,17,39,T,8,Snow,231
2014-2-8,22,16,10,11,6,0,80,66,52,30.28,30.23,30.20,10,10,4,18,14,25,0.00,5,,219
2014-2-9,21,17,12,14,11,6,88,70,52,30.20,30.08,30.01,10,6,2,12,5,14,T,7,Snow,269
2014-2-10,19,10,0,11,6,-2,95,76,56,30.27,30.12,30.02,10,6,1,14,6,17,T,5,Snow,254
2014-2-11,12,-1,-15,2,-7,-19,87,69,50,30.58,30.43,30.27,10,10,9,16,5,22,0.00,2,,282
2014-2-12,19,-1,-22,2,-12,-28,81,64,47,30.62,30.47,30.27,10,10,8,10,2,11,0.00,0,,42
2014-2-13,21,6,-9,15,4,-14,84,70,56,30.26,29.92,29.52,10,7,1,23,9,29,T,4,Snow,44
2014-2-14,24,22,19,19,17,15,84,81,77,29.73,29.42,29.28,10,2,0,18,10,23,0.17,8,Fog-Snow,276
2014-2-15,28,20,11,19,14,4,92,77,62,29.89,29.83,29.74,10,10,9,10,3,14,0.00,7,,289
2014-2-16,16,9,2,2,-4,-9,79,61,42,30.22,30.00,29.91,10,9,1,18,10,23,0.00,0,,263
2014-2-17,17,1,-15,-8,-12,-18,77,55,33,30.50,30.40,30.26,10,10,10,9,5,12,0.00,0,,274
2014-2-18,28,10,-8,22,10,-10,84,71,57,30.21,29.99,29.92,10,5,1,16,9,22,0.01,7,Snow,63
2014-2-19,34,27,20,26,21,17,84,74,63,29.99,29.79,29.62,10,10,5,15,7,18,T,6,,87
2014-2-20,38,32,26,32,27,20,96,83,70,30.17,30.11,29.97,10,6,2,16,8,22,0.01,4,,213
2014-2-21,41,37,33,38,33,25,100,82,64,30.00,29.70,29.55,10,6,0,26,12,36,0.62,7,Fog-Rain,95
2014-2-22,43,35,26,25,19,14,64,49,34,29.88,29.75,29.66,10,10,10,46,22,60,0.00,1,,221
2014-2-23,36,29,22,19,14,11,69,55,41,29.95,29.88,29.82,10,10,9,29,13,36,0.00,1,,234
2014-2-24,25,21,16,16,7,-1,84,64,43,30.03,29.90,29.84,10,8,2,29,13,37,T,8,Snow,264
2014-2-25,17,11,5,7,4,0,80,71,61,30.03,29.98,29.89,10,6,1,15,7,21,T,7,Snow,252
2014-2-26,15,8,0,10,1,-10,84,65,46,29.88,29.80,29.73,10,5,1,29,12,36,T,6,Snow,213
2014-2-27,18,11,4,10,3,-6,80,64,47,29.99,29.72,29.53,10,5,0,24,12,32,T,8,Snow,227
2014-2-28,11,3,-5,-6,-12,-16,65,47,29,30.44,30.34,30.04,10,10,10,22,9,28,0.00,0,,243